SBOSBO CPT / FACT
Speedbird OnlineSpeedbird Online CPT / FACT

Cape Town International Airport
21:29 15°C

Location Cape Town, South Africa
Latitude: -33.9648017883
Longitude: 18.6016998291
Web Airport Website | Wikipedia
Altitude 46 Meter / 151 Feet
Distance 9,674 KM / 6,011 Miles
from London.
Time Zone UTC +2 hours (Africa/Johannesburg)
Codes IATA: CPT
ICAO: FACT
Currency £1 equals ZAR 19.47
Runways
RunwayLength (m)Surface
013201Asphalt
161701Asphalt
193201Asphalt
341701Asphalt
Radio
TypeDescriptionFrequency
ACApron Control122.65
APPApproach119.7
APPDirector124.5
ATISATIS127
ATISLong Range ATIS127.6
GNDGround121.9
TWRTower118.1
Live ATC
METAR FACT 241900Z 19008KT CAVOK 15/12 Q1013 NOSIG
TAF TAF FACT 241600Z 2418/2524 18015KT CAVOK TX21/2513Z TN09/2504Z BECMG 2423/2501 VRB03KT PROB30 TEMPO 2502/2506 2000 BR NSC FM250700 34005KT CAVOK FM251200 19012KT 9999 BKN025 BECMG 2518/2520 02010KT
Weather As Of 24 Sep 2022 21:24
Description Clear sky
Wind 15 km/h from South (190°)
Cloud Cover 0%
Precipitation Rain: none, Snow: none
Sunrise 06:32
Sunset 18:42
Lounges Bidvest Premier Lounge - TEMPORARILY CLOSED, Departure Terminal
British Airways Lounge (Open), International
Rotations During the last 90 days there were
86 flights from LHR
88 flights to LHR


© 2017-2022 Speedbird Online